createdAt,value
2022-11-17T00:01:46.913Z,14.84
2022-11-17T00:04:32.732Z,14.84
2022-11-17T00:07:18.551Z,14.84
2022-11-17T00:10:04.991Z,14.88
2022-11-17T00:13:09.262Z,14.84
2022-11-17T00:15:55.062Z,14.86
2022-11-17T00:18:59.547Z,14.82
2022-11-17T00:21:45.789Z,14.85
2022-11-17T00:24:31.659Z,14.83
2022-11-17T00:27:18.140Z,14.94
2022-11-17T00:30:04.907Z,14.84
2022-11-17T00:33:09.393Z,14.81
2022-11-17T00:35:55.432Z,14.84
2022-11-17T00:38:41.493Z,14.89
2022-11-17T00:41:27.505Z,14.90
2022-11-17T00:44:14.320Z,14.96
2022-11-17T00:47:00.460Z,14.95
2022-11-17T00:49:46.469Z,14.88
2022-11-17T00:52:32.740Z,14.85
2022-11-17T00:55:18.605Z,14.88
2022-11-17T00:58:04.386Z,14.98
2022-11-17T01:00:50.466Z,15.01
2022-11-17T01:03:36.769Z,15.00
2022-11-17T01:06:23.168Z,15.01
2022-11-17T01:09:13.815Z,15.04
2022-11-17T01:11:59.984Z,15.03
2022-11-17T01:14:45.953Z,15.00
2022-11-17T01:17:31.801Z,15.06
2022-11-17T01:20:17.769Z,15.00
2022-11-17T01:23:03.907Z,15.02
2022-11-17T01:25:49.816Z,15.01
2022-11-17T01:28:36.885Z,15.04
2022-11-17T01:31:25.722Z,14.98
2022-11-17T01:34:12.744Z,15.08
2022-11-17T01:37:17.289Z,15.05
2022-11-17T01:40:04.660Z,14.96
2022-11-17T01:42:50.530Z,15.01
2022-11-17T01:45:37.287Z,15.05
2022-11-17T01:48:23.326Z,14.96
2022-11-17T01:51:10.832Z,14.94
2022-11-17T01:53:57.159Z,14.96
2022-11-17T01:56:44.504Z,15.02
2022-11-17T01:59:46.430Z,14.94
2022-11-17T02:02:34.534Z,15.00
2022-11-17T02:05:27.287Z,15.01
2022-11-17T02:08:13.063Z,14.75
2022-11-17T02:11:01.101Z,14.85
2022-11-17T02:13:47.405Z,14.82
2022-11-17T02:16:33.514Z,14.67
2022-11-17T02:19:21.338Z,14.68
2022-11-17T02:22:38.112Z,14.65
2022-11-17T02:25:36.156Z,14.75
2022-11-17T02:28:26.719Z,14.67
2022-11-17T02:31:12.560Z,14.69
2022-11-17T02:34:01.856Z,14.68
2022-11-17T02:36:50.774Z,14.64
2022-11-17T02:40:00.871Z,14.57
2022-11-17T02:43:15.911Z,14.51
2022-11-17T02:46:15.938Z,14.51
2022-11-17T02:49:34.983Z,14.45
2022-11-17T02:52:21.656Z,14.46
2022-11-17T02:55:10.501Z,14.56
2022-11-17T02:57:56.233Z,14.57
2022-11-17T03:00:51.163Z,14.49
2022-11-17T03:03:46.411Z,14.54
2022-11-17T03:06:57.794Z,14.56
2022-11-17T03:10:14.325Z,14.60
2022-11-17T03:13:18.705Z,14.68
2022-11-17T03:16:29.816Z,14.66
2022-11-17T03:19:40.046Z,14.66
2022-11-17T03:22:32.700Z,14.67
2022-11-17T03:25:20.720Z,14.73
2022-11-17T03:28:08.380Z,14.74
2022-11-17T03:30:54.409Z,14.72
2022-11-17T03:33:41.372Z,14.66
2022-11-17T03:36:32.998Z,14.71
2022-11-17T03:39:32.100Z,14.67
2022-11-17T03:42:27.754Z,14.59
2022-11-17T03:45:23.976Z,14.63
2022-11-17T03:48:16.001Z,14.61
2022-11-17T03:51:08.124Z,14.66
2022-11-17T03:53:54.702Z,14.65
2022-11-17T03:56:53.171Z,14.55
2022-11-17T04:00:00.924Z,14.62
2022-11-17T04:02:48.336Z,14.67
2022-11-17T04:05:34.580Z,14.69
2022-11-17T04:08:22.868Z,14.68
2022-11-17T04:11:27.566Z,14.66
2022-11-17T04:14:32.036Z,14.55
2022-11-17T04:17:18.112Z,14.53
2022-11-17T04:20:04.572Z,14.49
2022-11-17T04:23:07.147Z,14.49
2022-11-17T04:26:14.636Z,14.51
2022-11-17T04:29:00.851Z,14.43
2022-11-17T04:31:46.974Z,14.44
2022-11-17T04:34:33.060Z,14.42
2022-11-17T04:37:19.062Z,14.32
2022-11-17T04:40:05.624Z,14.31
2022-11-17T04:42:51.757Z,14.23
2022-11-17T04:45:37.872Z,14.09
2022-11-17T04:48:23.656Z,14.01
2022-11-17T04:51:10.153Z,14.06
2022-11-17T04:53:56.647Z,14.04
2022-11-17T04:56:42.616Z,14.02
2022-11-17T04:59:28.921Z,13.97
2022-11-17T05:02:14.949Z,13.98
2022-11-17T05:05:00.823Z,14.00
2022-11-17T05:07:46.725Z,13.94
2022-11-17T05:10:51.135Z,13.95
2022-11-17T05:13:37.382Z,13.86
2022-11-17T05:16:43.604Z,13.78
2022-11-17T05:19:30.718Z,13.84
2022-11-17T05:22:55.273Z,13.85
2022-11-17T05:25:40.972Z,13.81
2022-11-17T05:28:27.196Z,13.80
2022-11-17T05:31:13.582Z,13.79
2022-11-17T05:34:00.538Z,13.75
2022-11-17T05:36:46.795Z,13.76
2022-11-17T05:39:33.062Z,13.79
2022-11-17T05:42:19.606Z,13.63
2022-11-17T05:45:05.975Z,13.67
2022-11-17T05:47:51.885Z,13.53
2022-11-17T05:50:37.748Z,13.62
2022-11-17T05:53:24.315Z,13.54
2022-11-17T05:56:26.814Z,13.52
2022-11-17T05:59:27.299Z,13.42
2022-11-17T06:02:31.050Z,13.41
2022-11-17T06:05:20.409Z,13.46
2022-11-17T06:08:07.687Z,13.46
2022-11-17T06:10:53.523Z,13.44
2022-11-17T06:13:39.704Z,13.43
2022-11-17T06:16:29.247Z,13.33
2022-11-17T06:19:20.475Z,13.41
2022-11-17T06:22:14.042Z,13.39
2022-11-17T06:25:02.248Z,13.25
2022-11-17T06:27:48.960Z,13.14
2022-11-17T06:30:36.641Z,13.25
2022-11-17T06:33:22.798Z,13.24
2022-11-17T06:36:09.276Z,13.23
2022-11-17T06:38:55.526Z,13.16
2022-11-17T06:41:41.512Z,13.26
2022-11-17T06:44:27.652Z,13.30
2022-11-17T06:47:13.557Z,13.28
2022-11-17T06:49:59.483Z,13.35
2022-11-17T06:52:45.503Z,13.37
2022-11-17T06:55:31.633Z,13.40
2022-11-17T06:58:17.687Z,13.33
2022-11-17T07:01:09.131Z,13.45
2022-11-17T07:03:55.072Z,13.52
2022-11-17T07:06:41.394Z,13.50
2022-11-17T07:09:27.302Z,13.44
2022-11-17T07:12:13.271Z,13.51
2022-11-17T07:14:58.969Z,13.53
2022-11-17T07:17:45.169Z,13.51
2022-11-17T07:20:31.461Z,13.56
2022-11-17T07:23:17.394Z,13.61
2022-11-17T07:26:03.705Z,13.61
2022-11-17T07:28:49.621Z,13.58
2022-11-17T07:31:36.889Z,13.68
2022-11-17T07:34:23.055Z,13.71
2022-11-17T07:37:09.215Z,13.66
2022-11-17T07:39:55.022Z,13.75
2022-11-17T07:42:41.014Z,13.83
2022-11-17T07:45:31.927Z,13.90
2022-11-17T07:48:18.215Z,13.88
2022-11-17T07:51:04.853Z,14.05
2022-11-17T07:53:51.074Z,13.99
2022-11-17T07:56:36.979Z,14.08
2022-11-17T07:59:22.850Z,14.23
2022-11-17T08:02:09.831Z,14.22
2022-11-17T08:04:55.786Z,14.26
2022-11-17T08:07:41.514Z,14.24
2022-11-17T08:10:28.365Z,14.28
2022-11-17T08:13:15.490Z,14.31
2022-11-17T08:16:02.118Z,14.36
2022-11-17T08:18:52.049Z,14.36
2022-11-17T08:21:38.697Z,14.38
2022-11-17T08:24:24.601Z,14.41
2022-11-17T08:27:10.664Z,14.38
2022-11-17T08:29:56.946Z,14.39
2022-11-17T08:32:48.140Z,14.34
2022-11-17T08:35:37.414Z,14.44
2022-11-17T08:38:28.895Z,14.48
2022-11-17T08:41:14.688Z,14.50
2022-11-17T08:44:00.522Z,14.46
2022-11-17T08:46:46.526Z,14.58
2022-11-17T08:49:32.307Z,14.65
2022-11-17T08:52:19.417Z,14.65
2022-11-17T08:55:07.020Z,14.73
2022-11-17T08:57:52.805Z,14.74
2022-11-17T09:00:39.821Z,14.84
2022-11-17T09:03:25.468Z,14.89
2022-11-17T09:06:12.500Z,14.92
2022-11-17T09:08:58.745Z,15.00
2022-11-17T09:11:44.862Z,15.01
2022-11-17T09:14:31.654Z,14.99
2022-11-17T09:17:17.491Z,15.01
2022-11-17T09:20:03.680Z,15.09
2022-11-17T09:22:49.753Z,15.18
2022-11-17T09:25:35.541Z,15.15
2022-11-17T09:28:23.740Z,15.21
2022-11-17T09:31:12.273Z,15.20
2022-11-17T09:34:00.828Z,15.17
2022-11-17T09:36:49.617Z,15.43
2022-11-17T09:39:35.534Z,15.45
2022-11-17T09:42:22.708Z,15.52
2022-11-17T09:45:18.437Z,15.53
2022-11-17T09:51:23.951Z,15.77
2022-11-17T09:54:27.559Z,15.75
2022-11-17T09:57:20.979Z,15.87
2022-11-17T10:00:14.966Z,15.95
2022-11-17T10:03:01.939Z,16.02
2022-11-17T10:05:49.167Z,16.12
2022-11-17T10:08:40.019Z,16.15
2022-11-17T10:11:34.173Z,16.17
2022-11-17T10:14:22.090Z,16.12
2022-11-17T10:17:09.506Z,16.08
2022-11-17T10:19:55.545Z,16.20
2022-11-17T10:22:41.831Z,16.25
2022-11-17T10:25:48.750Z,16.19
2022-11-17T10:28:34.948Z,16.15
2022-11-17T10:31:21.066Z,16.11
2022-11-17T10:34:12.072Z,16.19
2022-11-17T10:37:04.048Z,16.21
2022-11-17T10:39:49.863Z,16.23
2022-11-17T10:42:35.862Z,16.19
2022-11-17T10:45:21.687Z,16.26
2022-11-17T10:48:29.529Z,16.25
2022-11-17T10:51:19.607Z,16.20
2022-11-17T10:54:07.028Z,16.34
2022-11-17T10:56:55.761Z,16.36
2022-11-17T10:59:55.217Z,16.45
2022-11-17T11:02:43.191Z,16.46
2022-11-17T11:05:28.897Z,16.54
2022-11-17T11:08:19.626Z,16.60
2022-11-17T11:11:11.541Z,16.61
2022-11-17T11:14:08.187Z,16.62
2022-11-17T11:16:55.363Z,16.67
2022-11-17T11:19:54.358Z,16.59
2022-11-17T11:22:56.628Z,16.77
2022-11-17T11:25:49.247Z,16.83
2022-11-17T11:28:46.391Z,16.85
2022-11-17T11:31:41.285Z,16.82
2022-11-17T11:35:04.575Z,16.83
2022-11-17T11:38:19.488Z,16.94
2022-11-17T11:41:08.286Z,17.03
2022-11-17T11:44:15.958Z,17.09
2022-11-17T11:47:17.010Z,17.07
2022-11-17T11:50:14.375Z,17.10
2022-11-17T11:53:07.499Z,17.21
2022-11-17T11:56:02.540Z,17.25
2022-11-17T11:58:59.487Z,17.31
2022-11-17T12:01:51.661Z,17.43
2022-11-17T12:04:48.001Z,17.50
2022-11-17T12:07:58.982Z,17.55
2022-11-17T12:10:58.725Z,17.64
2022-11-17T12:13:51.226Z,17.68
2022-11-17T12:16:43.199Z,17.71
2022-11-17T12:19:47.023Z,17.79
2022-11-17T12:22:32.932Z,17.78
2022-11-17T12:25:24.670Z,17.87
2022-11-17T12:28:28.989Z,17.92
2022-11-17T12:31:46.559Z,17.95
2022-11-17T12:34:35.907Z,18.09
2022-11-17T12:37:23.040Z,18.13
2022-11-17T12:40:11.593Z,18.25
2022-11-17T12:43:15.848Z,18.41
2022-11-17T12:46:14.295Z,18.53
2022-11-17T12:49:07.917Z,18.67
2022-11-17T12:52:02.397Z,18.71
2022-11-17T12:54:56.662Z,18.92
2022-11-17T12:57:44.643Z,19.06
2022-11-17T13:00:34.898Z,19.12
2022-11-17T13:03:42.635Z,19.28
2022-11-17T13:06:35.339Z,19.40
2022-11-17T13:09:26.942Z,19.57
2022-11-17T13:12:13.018Z,19.73
2022-11-17T13:15:02.626Z,19.74
2022-11-17T13:17:49.650Z,19.87
2022-11-17T13:20:35.807Z,20.23
2022-11-17T13:23:34.519Z,21.16
2022-11-17T13:26:35.872Z,22.14
2022-11-17T13:29:22.619Z,22.37
2022-11-17T13:32:17.717Z,22.23
2022-11-17T13:35:23.121Z,21.91
2022-11-17T13:38:19.554Z,21.72
2022-11-17T13:41:06.745Z,21.44
2022-11-17T13:43:53.537Z,21.21
2022-11-17T13:46:39.503Z,20.90
2022-11-17T13:49:34.800Z,20.76
2022-11-17T13:52:45.396Z,20.45
2022-11-17T13:55:33.421Z,20.27
2022-11-17T13:58:26.436Z,20.21
2022-11-17T14:01:15.803Z,20.08
2022-11-17T14:04:20.641Z,19.88
2022-11-17T14:07:10.632Z,19.77
2022-11-17T14:10:22.773Z,19.63
2022-11-17T14:13:23.706Z,19.48
2022-11-17T14:16:39.813Z,19.32
2022-11-17T14:19:31.990Z,19.32
2022-11-17T14:22:24.787Z,19.19
2022-11-17T14:25:15.628Z,19.12
2022-11-17T14:28:01.838Z,18.98
2022-11-17T14:30:48.088Z,18.94
2022-11-17T14:33:34.062Z,18.92
2022-11-17T14:36:20.031Z,18.86
2022-11-17T14:39:17.899Z,18.78
2022-11-17T14:42:04.386Z,18.74
2022-11-17T14:44:50.174Z,18.67
2022-11-17T14:47:36.263Z,18.58
2022-11-17T14:50:22.085Z,18.54
2022-11-17T14:53:08.170Z,18.49
2022-11-17T14:55:54.561Z,18.42
2022-11-17T14:58:40.483Z,18.25
2022-11-17T15:01:30.446Z,18.28
2022-11-17T15:04:48.397Z,18.15
2022-11-17T15:07:23.027Z,18.09
2022-11-17T15:10:10.234Z,18.00
2022-11-17T15:12:56.279Z,17.87
2022-11-17T15:15:42.229Z,17.83
2022-11-17T15:18:28.654Z,17.79
2022-11-17T15:21:16.078Z,17.74
2022-11-17T15:24:04.116Z,17.66
2022-11-17T15:26:50.078Z,17.63
2022-11-17T15:29:35.986Z,17.51
2022-11-17T15:32:21.815Z,17.49
2022-11-17T15:35:08.123Z,17.40
2022-11-17T15:37:53.966Z,17.35
2022-11-17T15:40:40.299Z,17.34
2022-11-17T15:43:28.103Z,17.26
2022-11-17T15:46:18.681Z,17.23
2022-11-17T15:49:05.020Z,17.14
2022-11-17T15:51:50.686Z,17.08
2022-11-17T15:54:36.665Z,17.02
2022-11-17T15:57:22.601Z,16.94
2022-11-17T16:00:09.246Z,16.95
2022-11-17T16:02:58.590Z,16.90
2022-11-17T16:05:45.282Z,16.83
2022-11-17T16:08:31.910Z,16.77
2022-11-17T16:11:18.068Z,16.76
2022-11-17T16:14:05.423Z,16.67
2022-11-17T16:16:51.855Z,16.62
2022-11-17T16:19:37.955Z,16.60
2022-11-17T16:22:23.898Z,16.59
2022-11-17T16:25:10.525Z,16.51
2022-11-17T16:27:56.506Z,16.49
2022-11-17T16:30:42.314Z,16.33
2022-11-17T16:33:28.281Z,16.44
2022-11-17T16:36:14.468Z,16.33
2022-11-17T16:39:02.293Z,16.31
2022-11-17T16:41:51.319Z,16.31
2022-11-17T16:44:37.227Z,16.27
2022-11-17T16:47:23.335Z,16.24
2022-11-17T16:50:09.708Z,16.18
2022-11-17T16:52:55.837Z,16.11
2022-11-17T16:55:41.767Z,16.11
2022-11-17T16:58:27.727Z,15.89
2022-11-17T17:01:16.761Z,15.94
2022-11-17T17:04:06.618Z,15.91
2022-11-17T17:06:52.824Z,15.85
2022-11-17T17:09:39.010Z,15.84
2022-11-17T17:12:25.026Z,15.83
2022-11-17T17:15:11.383Z,15.80
2022-11-17T17:17:57.489Z,15.78
2022-11-17T17:20:51.823Z,15.68
2022-11-17T17:23:38.063Z,15.68
2022-11-17T17:26:26.173Z,15.60
2022-11-17T17:29:12.783Z,15.61
2022-11-17T17:31:59.108Z,15.59
2022-11-17T17:34:45.289Z,15.59
2022-11-17T17:37:32.515Z,15.49
2022-11-17T17:40:18.291Z,15.49
2022-11-17T17:43:04.141Z,15.47
2022-11-17T17:45:50.026Z,15.39
2022-11-17T17:48:37.802Z,15.39
2022-11-17T17:51:25.271Z,15.40
2022-11-17T17:54:17.251Z,15.34
2022-11-17T17:57:03.215Z,15.24
2022-11-17T17:59:49.282Z,15.21
2022-11-17T18:02:36.239Z,15.17
2022-11-17T18:05:22.662Z,15.05
2022-11-17T18:08:08.952Z,15.03
2022-11-17T18:10:59.740Z,14.99
2022-11-17T18:13:47.608Z,14.86
2022-11-17T18:16:34.128Z,14.90
2022-11-17T18:19:20.409Z,14.75
2022-11-17T18:22:06.541Z,14.79
2022-11-17T18:24:57.353Z,14.67
2022-11-17T18:27:44.112Z,14.70
2022-11-17T18:30:30.029Z,14.65
2022-11-17T18:33:16.425Z,14.59
2022-11-17T18:36:05.081Z,14.50
2022-11-17T18:38:52.838Z,14.50
2022-11-17T18:41:38.972Z,14.44
2022-11-17T18:44:25.182Z,14.40
2022-11-17T18:47:11.318Z,14.36
2022-11-17T18:49:57.245Z,14.30
2022-11-17T18:52:43.146Z,14.31
2022-11-17T18:55:29.120Z,14.27
2022-11-17T18:58:14.941Z,14.25
2022-11-17T19:01:15.016Z,14.08
2022-11-17T19:04:01.202Z,14.11
2022-11-17T19:06:47.352Z,13.98
2022-11-17T19:09:33.244Z,13.99
2022-11-17T19:12:19.289Z,13.88
2022-11-17T19:15:05.745Z,13.88
2022-11-17T19:17:51.466Z,13.80
2022-11-17T19:20:37.456Z,13.86
2022-11-17T19:23:23.374Z,13.79
2022-11-17T19:26:20.715Z,13.76
2022-11-17T19:29:15.531Z,13.71
2022-11-17T19:32:03.161Z,13.55
2022-11-17T19:34:49.082Z,13.66
2022-11-17T19:37:35.119Z,13.50
2022-11-17T19:40:21.062Z,13.56
2022-11-17T19:43:06.923Z,13.48
2022-11-17T19:45:57.536Z,13.54
2022-11-17T19:48:44.416Z,13.43
2022-11-17T19:51:32.612Z,13.45
2022-11-17T19:54:18.785Z,13.42
2022-11-17T19:57:04.982Z,13.41
2022-11-17T19:59:50.989Z,13.39
2022-11-17T20:02:36.950Z,13.41
2022-11-17T20:05:22.878Z,13.30
2022-11-17T20:08:09.234Z,13.31
2022-11-17T20:11:02.989Z,13.26
2022-11-17T20:13:49.172Z,13.25
2022-11-17T20:16:36.855Z,13.23
2022-11-17T20:19:22.689Z,13.21
2022-11-17T20:22:09.382Z,13.11
2022-11-17T20:25:00.566Z,13.16
2022-11-17T20:27:49.399Z,13.04
2022-11-17T20:30:37.855Z,13.05
2022-11-17T20:33:23.957Z,12.94
2022-11-17T20:36:13.147Z,12.91
2022-11-17T20:39:00.992Z,12.95
2022-11-17T20:41:47.263Z,12.92
2022-11-17T20:44:33.354Z,12.76
2022-11-17T20:47:19.314Z,12.84
2022-11-17T20:50:05.891Z,12.78
2022-11-17T20:52:51.779Z,12.68
2022-11-17T20:55:38.586Z,12.59
2022-11-17T20:58:25.554Z,12.62
2022-11-17T21:01:23.852Z,12.55
2022-11-17T21:04:11.170Z,12.49
2022-11-17T21:06:57.365Z,12.45
2022-11-17T21:09:43.485Z,12.33
2022-11-17T21:12:29.381Z,12.41
2022-11-17T21:15:15.191Z,12.35
2022-11-17T21:18:36.291Z,12.35
2022-11-17T21:21:22.361Z,12.26
2022-11-17T21:24:09.290Z,12.24
2022-11-17T21:26:55.487Z,12.19
2022-11-17T21:29:42.087Z,12.21
2022-11-17T21:32:28.147Z,12.11
2022-11-17T21:35:14.602Z,12.09
2022-11-17T21:38:00.540Z,12.02
2022-11-17T21:40:46.522Z,11.95
2022-11-17T21:43:32.655Z,11.98
2022-11-17T21:46:23.309Z,11.91
2022-11-17T21:49:09.276Z,11.91
2022-11-17T21:51:55.188Z,11.90
2022-11-17T21:54:41.252Z,11.88
2022-11-17T21:57:27.146Z,11.84
2022-11-17T22:00:13.801Z,11.74
2022-11-17T22:02:59.858Z,11.76
2022-11-17T22:05:45.706Z,11.72
2022-11-17T22:08:31.748Z,11.70
2022-11-17T22:11:40.876Z,11.64
2022-11-17T22:14:26.664Z,11.65
2022-11-17T22:17:13.254Z,11.56
2022-11-17T22:19:59.487Z,11.52
2022-11-17T22:22:47.688Z,11.52
2022-11-17T22:25:49.056Z,11.47
2022-11-17T22:28:34.911Z,11.45
2022-11-17T22:31:21.565Z,11.39
2022-11-17T22:34:07.432Z,11.41
2022-11-17T22:36:53.451Z,11.37
2022-11-17T22:39:39.439Z,11.39
2022-11-17T22:42:25.613Z,11.31
2022-11-17T22:45:11.582Z,11.32
2022-11-17T22:47:57.421Z,11.32
2022-11-17T22:50:43.279Z,11.20
2022-11-17T22:53:29.167Z,11.25
2022-11-17T22:56:15.070Z,11.21
2022-11-17T22:59:01.122Z,11.18
2022-11-17T23:01:47.136Z,11.11
2022-11-17T23:04:32.983Z,11.10
2022-11-17T23:07:19.187Z,11.05
2022-11-17T23:10:06.106Z,10.99
2022-11-17T23:12:52.545Z,10.99
2022-11-17T23:15:39.581Z,10.96
2022-11-17T23:18:25.678Z,10.95
2022-11-17T23:21:11.788Z,10.87
2022-11-17T23:23:57.934Z,10.93
2022-11-17T23:26:43.808Z,10.94
2022-11-17T23:29:29.886Z,10.88
2022-11-17T23:32:15.975Z,10.88
2022-11-17T23:35:01.887Z,10.88
2022-11-17T23:37:47.895Z,10.81
2022-11-17T23:40:33.990Z,10.73
2022-11-17T23:43:19.933Z,10.71
2022-11-17T23:46:06.943Z,10.66
2022-11-17T23:48:54.133Z,10.72
2022-11-17T23:51:40.134Z,10.73
2022-11-17T23:54:26.058Z,10.69
2022-11-17T23:57:11.946Z,10.58
2022-11-17T23:59:58.062Z,10.63
